CheckWX is a tool to help pilots better visualize weather data.  It is not intended as a substitute for an official pre-flight weather briefing.

16:49:55 UTC

KANB TAF
Anniston Regional Airport
Anniston, Alabama, USA
KANB 261120Z 2612/2712 35007KT P6SM OVC035 TEMPO 2612/2615 BKN025 FM261700 01009G16KT P6SM BKN040 FM270100 34005KT P6SM SKC

Mar-26@
12:00 UTC

Mar-26 @ 12:00 UTC

Mar-26@
17:00 UTC

Mar-26 @ 17:00 UTC

KANB 261120Z 2612/2712 35007KT P6SM OVC035
Wind
  • 350° at 7 KTS
Cloud Levels
  • Overcast at 3,500' AGL

Mar-26@
12:00 UTC

Mar-26 @ 12:00 UTC

Mar-26@
15:00 UTC

Mar-26 @ 15:00 UTC

TEMPO 2612/2615 BKN025

Expired

Cloud Levels
  • Broken at 2,500' AGL

Mar-26@
17:00 UTC

Mar-26 @ 17:00 UTC

Mar-27@
01:00 UTC

Mar-27 @ 01:00 UTC

FM261700 01009G16KT P6SM BKN040

From

From Standard forecast or significant change

Wind
  • 010° at 9 KTS
  • {Gusting to 16 KTS
Cloud Levels
  • Broken at 4,000' AGL

Mar-27@
01:00 UTC

Mar-27 @ 01:00 UTC

Mar-27@
12:00 UTC

Mar-27 @ 12:00 UTC

FM270100 34005KT P6SM SKC

From

From Standard forecast or significant change

Wind
  • 340° at 5 KTS
Cloud Levels
  • Clear skies